sensor_id;sensor_type;location;lat;lon;timestamp;P1;durP1;ratioP1;P2;durP2;ratioP2
79135;SDS011;68533;51.090;17.216;2023-09-19T00:00:30;7.38;;;4.40;;
79135;SDS011;68533;51.090;17.216;2023-09-19T00:03:17;8.40;;;5.25;;
79135;SDS011;68533;51.090;17.216;2023-09-19T00:05:49;9.07;;;4.57;;
79135;SDS011;68533;51.090;17.216;2023-09-19T00:08:16;6.32;;;4.78;;
79135;SDS011;68533;51.090;17.216;2023-09-19T00:10:45;6.15;;;3.47;;
79135;SDS011;68533;51.090;17.216;2023-09-19T00:13:11;5.90;;;2.83;;
79135;SDS011;68533;51.090;17.216;2023-09-19T00:15:40;3.22;;;2.60;;
79135;SDS011;68533;51.090;17.216;2023-09-19T00:18:08;6.13;;;3.38;;
79135;SDS011;68533;51.090;17.216;2023-09-19T00:20:37;3.78;;;2.80;;
79135;SDS011;68533;51.090;17.216;2023-09-19T00:23:05;4.00;;;2.72;;
79135;SDS011;68533;51.090;17.216;2023-09-19T00:25:32;2.17;;;1.42;;
79135;SDS011;68533;51.090;17.216;2023-09-19T00:30:27;2.33;;;0.95;;
79135;SDS011;68533;51.090;17.216;2023-09-19T00:32:53;1.70;;;1.10;;
79135;SDS011;68533;51.090;17.216;2023-09-19T00:35:23;1.08;;;0.57;;
79135;SDS011;68533;51.090;17.216;2023-09-19T00:37:50;1.95;;;1.17;;
79135;SDS011;68533;51.090;17.216;2023-09-19T00:40:16;1.08;;;0.70;;
79135;SDS011;68533;51.090;17.216;2023-09-19T00:42:44;0.80;;;0.60;;
79135;SDS011;68533;51.090;17.216;2023-09-19T00:45:12;1.42;;;0.73;;
79135;SDS011;68533;51.090;17.216;2023-09-19T00:47:39;1.20;;;0.68;;
79135;SDS011;68533;51.090;17.216;2023-09-19T00:50:20;1.55;;;0.60;;
79135;SDS011;68533;51.090;17.216;2023-09-19T00:52:49;1.30;;;1.08;;
79135;SDS011;68533;51.090;17.216;2023-09-19T00:55:18;9.07;;;1.08;;
79135;SDS011;68533;51.090;17.216;2023-09-19T00:57:47;3.20;;;0.50;;
79135;SDS011;68533;51.090;17.216;2023-09-19T01:00:15;3.00;;;0.82;;
79135;SDS011;68533;51.090;17.216;2023-09-19T01:02:42;1.60;;;0.68;;
79135;SDS011;68533;51.090;17.216;2023-09-19T01:05:09;1.13;;;0.80;;
79135;SDS011;68533;51.090;17.216;2023-09-19T01:07:35;2.55;;;0.60;;
79135;SDS011;68533;51.090;17.216;2023-09-19T01:10:04;0.93;;;0.40;;
79135;SDS011;68533;51.090;17.216;2023-09-19T01:12:34;2.38;;;0.70;;
79135;SDS011;68533;51.090;17.216;2023-09-19T01:17:57;1.35;;;0.57;;
79135;SDS011;68533;51.090;17.216;2023-09-19T01:26:05;1.55;;;0.52;;
79135;SDS011;68533;51.090;17.216;2023-09-19T01:31:28;0.93;;;0.40;;
79135;SDS011;68533;51.090;17.216;2023-09-19T01:34:00;1.08;;;0.70;;
79135;SDS011;68533;51.090;17.216;2023-09-19T01:36:33;2.03;;;0.35;;
79135;SDS011;68533;51.090;17.216;2023-09-19T01:39:05;1.25;;;0.80;;
79135;SDS011;68533;51.090;17.216;2023-09-19T01:41:47;2.13;;;0.70;;
79135;SDS011;68533;51.090;17.216;2023-09-19T01:44:17;0.75;;;0.60;;
79135;SDS011;68533;51.090;17.216;2023-09-19T01:46:49;0.68;;;0.47;;
79135;SDS011;68533;51.090;17.216;2023-09-19T01:49:20;1.27;;;0.95;;
79135;SDS011;68533;51.090;17.216;2023-09-19T01:51:56;2.08;;;1.40;;
79135;SDS011;68533;51.090;17.216;2023-09-19T01:54:46;1.63;;;0.70;;
79135;SDS011;68533;51.090;17.216;2023-09-19T02:00:09;0.90;;;0.50;;
79135;SDS011;68533;51.090;17.216;2023-09-19T02:05:04;0.90;;;0.68;;
79135;SDS011;68533;51.090;17.216;2023-09-19T02:07:31;0.73;;;0.50;;
79135;SDS011;68533;51.090;17.216;2023-09-19T02:09:58;0.30;;;0.28;;
79135;SDS011;68533;51.090;17.216;2023-09-19T02:12:26;0.90;;;0.70;;
79135;SDS011;68533;51.090;17.216;2023-09-19T02:14:53;0.93;;;0.55;;
79135;SDS011;68533;51.090;17.216;2023-09-19T02:17:19;1.05;;;0.73;;
79135;SDS011;68533;51.090;17.216;2023-09-19T02:19:45;2.05;;;0.60;;
79135;SDS011;68533;51.090;17.216;2023-09-19T02:22:10;0.77;;;0.40;;
79135;SDS011;68533;51.090;17.216;2023-09-19T02:24:37;1.15;;;0.40;;
79135;SDS011;68533;51.090;17.216;2023-09-19T02:27:06;1.48;;;0.47;;
79135;SDS011;68533;51.090;17.216;2023-09-19T02:29:33;0.93;;;0.50;;
79135;SDS011;68533;51.090;17.216;2023-09-19T02:32:00;1.67;;;0.47;;
79135;SDS011;68533;51.090;17.216;2023-09-19T02:34:27;0.73;;;0.50;;
79135;SDS011;68533;51.090;17.216;2023-09-19T02:36:53;1.00;;;0.52;;
79135;SDS011;68533;51.090;17.216;2023-09-19T02:39:22;0.98;;;0.50;;
79135;SDS011;68533;51.090;17.216;2023-09-19T02:41:49;0.35;;;0.35;;
79135;SDS011;68533;51.090;17.216;2023-09-19T02:44:15;5.50;;;0.70;;
79135;SDS011;68533;51.090;17.216;2023-09-19T02:46:41;1.23;;;0.70;;
79135;SDS011;68533;51.090;17.216;2023-09-19T02:49:08;4.15;;;1.35;;
79135;SDS011;68533;51.090;17.216;2023-09-19T02:51:34;1.55;;;0.50;;
79135;SDS011;68533;51.090;17.216;2023-09-19T02:54:11;2.20;;;0.65;;
79135;SDS011;68533;51.090;17.216;2023-09-19T02:56:43;2.33;;;1.08;;
79135;SDS011;68533;51.090;17.216;2023-09-19T02:59:11;2.17;;;0.63;;
79135;SDS011;68533;51.090;17.216;2023-09-19T03:01:39;1.45;;;0.80;;
79135;SDS011;68533;51.090;17.216;2023-09-19T03:04:08;1.60;;;0.52;;
79135;SDS011;68533;51.090;17.216;2023-09-19T03:06:36;0.82;;;0.60;;
79135;SDS011;68533;51.090;17.216;2023-09-19T03:09:04;2.95;;;0.77;;
79135;SDS011;68533;51.090;17.216;2023-09-19T03:11:38;1.73;;;0.95;;
79135;SDS011;68533;51.090;17.216;2023-09-19T03:16:31;0.57;;;0.38;;
79135;SDS011;68533;51.090;17.216;2023-09-19T03:18:59;2.15;;;0.40;;
79135;SDS011;68533;51.090;17.216;2023-09-19T03:21:25;0.40;;;0.40;;
79135;SDS011;68533;51.090;17.216;2023-09-19T03:23:52;5.03;;;0.95;;
79135;SDS011;68533;51.090;17.216;2023-09-19T03:26:18;2.78;;;0.68;;
79135;SDS011;68533;51.090;17.216;2023-09-19T03:28:45;1.95;;;0.80;;
79135;SDS011;68533;51.090;17.216;2023-09-19T03:31:11;3.05;;;2.03;;
79135;SDS011;68533;51.090;17.216;2023-09-19T03:33:37;1.30;;;0.60;;
79135;SDS011;68533;51.090;17.216;2023-09-19T03:36:03;2.50;;;0.70;;
79135;SDS011;68533;51.090;17.216;2023-09-19T03:38:31;1.42;;;0.50;;
79135;SDS011;68533;51.090;17.216;2023-09-19T03:40:57;0.98;;;0.73;;
79135;SDS011;68533;51.090;17.216;2023-09-19T03:43:24;1.45;;;0.82;;
79135;SDS011;68533;51.090;17.216;2023-09-19T03:45:52;0.77;;;0.40;;
79135;SDS011;68533;51.090;17.216;2023-09-19T03:48:21;0.40;;;0.32;;
79135;SDS011;68533;51.090;17.216;2023-09-19T03:50:47;1.38;;;0.90;;
79135;SDS011;68533;51.090;17.216;2023-09-19T03:53:14;1.25;;;0.60;;
79135;SDS011;68533;51.090;17.216;2023-09-19T03:55:39;0.73;;;0.40;;
79135;SDS011;68533;51.090;17.216;2023-09-19T03:58:06;1.30;;;0.70;;
79135;SDS011;68533;51.090;17.216;2023-09-19T04:00:32;2.10;;;0.65;;
79135;SDS011;68533;51.090;17.216;2023-09-19T04:03:00;1.00;;;0.88;;
79135;SDS011;68533;51.090;17.216;2023-09-19T04:05:31;6.15;;;0.82;;
79135;SDS011;68533;51.090;17.216;2023-09-19T04:07:59;2.55;;;0.93;;
79135;SDS011;68533;51.090;17.216;2023-09-19T04:10:26;1.58;;;0.82;;
79135;SDS011;68533;51.090;17.216;2023-09-19T04:12:54;1.15;;;0.63;;
79135;SDS011;68533;51.090;17.216;2023-09-19T04:15:20;2.67;;;1.05;;
79135;SDS011;68533;51.090;17.216;2023-09-19T04:17:51;1.30;;;1.20;;
79135;SDS011;68533;51.090;17.216;2023-09-19T04:20:18;1.35;;;0.93;;
79135;SDS011;68533;51.090;17.216;2023-09-19T04:22:53;1.65;;;1.05;;
79135;SDS011;68533;51.090;17.216;2023-09-19T04:25:20;1.55;;;1.00;;
79135;SDS011;68533;51.090;17.216;2023-09-19T04:27:46;1.60;;;0.85;;
79135;SDS011;68533;51.090;17.216;2023-09-19T04:30:13;1.98;;;1.02;;
79135;SDS011;68533;51.090;17.216;2023-09-19T04:32:40;2.15;;;1.13;;
79135;SDS011;68533;51.090;17.216;2023-09-19T04:35:07;0.65;;;0.63;;
79135;SDS011;68533;51.090;17.216;2023-09-19T04:37:36;1.75;;;0.60;;
79135;SDS011;68533;51.090;17.216;2023-09-19T04:40:08;2.00;;;1.02;;
79135;SDS011;68533;51.090;17.216;2023-09-19T04:42:40;2.08;;;1.10;;
79135;SDS011;68533;51.090;17.216;2023-09-19T04:45:07;1.13;;;0.85;;
79135;SDS011;68533;51.090;17.216;2023-09-19T04:47:36;2.22;;;1.20;;
79135;SDS011;68533;51.090;17.216;2023-09-19T04:50:07;1.90;;;0.80;;
79135;SDS011;68533;51.090;17.216;2023-09-19T04:52:43;1.25;;;0.95;;
79135;SDS011;68533;51.090;17.216;2023-09-19T04:55:13;3.10;;;1.27;;
79135;SDS011;68533;51.090;17.216;2023-09-19T04:57:43;4.63;;;1.02;;
79135;SDS011;68533;51.090;17.216;2023-09-19T05:00:17;3.47;;;1.17;;
79135;SDS011;68533;51.090;17.216;2023-09-19T05:02:45;1.90;;;1.13;;
79135;SDS011;68533;51.090;17.216;2023-09-19T05:05:17;3.25;;;1.20;;
79135;SDS011;68533;51.090;17.216;2023-09-19T05:07:45;1.13;;;0.90;;
79135;SDS011;68533;51.090;17.216;2023-09-19T05:10:11;2.85;;;1.67;;
79135;SDS011;68533;51.090;17.216;2023-09-19T05:12:40;2.78;;;1.10;;
79135;SDS011;68533;51.090;17.216;2023-09-19T05:15:07;4.38;;;1.50;;
79135;SDS011;68533;51.090;17.216;2023-09-19T05:17:34;6.43;;;1.52;;
79135;SDS011;68533;51.090;17.216;2023-09-19T05:20:00;5.03;;;1.58;;
79135;SDS011;68533;51.090;17.216;2023-09-19T05:22:41;4.97;;;1.45;;
79135;SDS011;68533;51.090;17.216;2023-09-19T05:25:09;6.43;;;2.35;;
79135;SDS011;68533;51.090;17.216;2023-09-19T05:27:43;2.30;;;0.98;;
79135;SDS011;68533;51.090;17.216;2023-09-19T05:30:09;2.65;;;0.80;;
79135;SDS011;68533;51.090;17.216;2023-09-19T05:32:36;3.67;;;1.08;;
79135;SDS011;68533;51.090;17.216;2023-09-19T05:35:02;2.30;;;1.50;;
79135;SDS011;68533;51.090;17.216;2023-09-19T05:37:29;2.42;;;1.85;;
79135;SDS011;68533;51.090;17.216;2023-09-19T05:39:55;3.25;;;1.30;;
79135;SDS011;68533;51.090;17.216;2023-09-19T05:42:21;2.45;;;1.60;;
79135;SDS011;68533;51.090;17.216;2023-09-19T05:44:47;2.22;;;1.20;;
79135;SDS011;68533;51.090;17.216;2023-09-19T05:47:14;2.55;;;1.10;;
79135;SDS011;68533;51.090;17.216;2023-09-19T05:49:40;1.23;;;0.90;;
79135;SDS011;68533;51.090;17.216;2023-09-19T05:52:07;1.70;;;0.77;;
79135;SDS011;68533;51.090;17.216;2023-09-19T05:54:33;2.60;;;1.10;;
79135;SDS011;68533;51.090;17.216;2023-09-19T05:57:00;2.03;;;1.00;;
79135;SDS011;68533;51.090;17.216;2023-09-19T05:59:27;4.57;;;1.70;;
79135;SDS011;68533;51.090;17.216;2023-09-19T06:01:54;1.10;;;0.90;;
79135;SDS011;68533;51.090;17.216;2023-09-19T06:04:20;1.83;;;1.38;;
79135;SDS011;68533;51.090;17.216;2023-09-19T06:06:49;1.10;;;0.75;;
79135;SDS011;68533;51.090;17.216;2023-09-19T06:09:19;5.72;;;1.35;;
79135;SDS011;68533;51.090;17.216;2023-09-19T06:11:46;2.10;;;1.20;;
79135;SDS011;68533;51.090;17.216;2023-09-19T06:14:12;1.50;;;1.23;;
79135;SDS011;68533;51.090;17.216;2023-09-19T06:16:40;3.80;;;1.83;;
79135;SDS011;68533;51.090;17.216;2023-09-19T06:19:07;2.72;;;1.60;;
79135;SDS011;68533;51.090;17.216;2023-09-19T06:21:36;3.38;;;1.23;;
79135;SDS011;68533;51.090;17.216;2023-09-19T06:24:02;4.00;;;1.02;;
79135;SDS011;68533;51.090;17.216;2023-09-19T06:26:29;2.67;;;1.27;;
79135;SDS011;68533;51.090;17.216;2023-09-19T06:28:56;2.85;;;0.73;;
79135;SDS011;68533;51.090;17.216;2023-09-19T06:31:22;1.60;;;1.00;;
79135;SDS011;68533;51.090;17.216;2023-09-19T06:33:51;2.80;;;1.35;;
79135;SDS011;68533;51.090;17.216;2023-09-19T06:36:19;2.72;;;0.98;;
79135;SDS011;68533;51.090;17.216;2023-09-19T06:38:48;3.20;;;0.68;;
79135;SDS011;68533;51.090;17.216;2023-09-19T06:41:17;3.38;;;1.13;;
79135;SDS011;68533;51.090;17.216;2023-09-19T06:43:44;4.30;;;1.65;;
79135;SDS011;68533;51.090;17.216;2023-09-19T06:46:11;0.63;;;0.52;;
79135;SDS011;68533;51.090;17.216;2023-09-19T06:48:38;5.25;;;1.10;;
79135;SDS011;68533;51.090;17.216;2023-09-19T06:51:04;2.42;;;1.38;;
79135;SDS011;68533;51.090;17.216;2023-09-19T06:53:33;3.42;;;1.55;;
79135;SDS011;68533;51.090;17.216;2023-09-19T06:56:01;0.50;;;0.38;;
79135;SDS011;68533;51.090;17.216;2023-09-19T06:58:28;1.63;;;0.85;;
79135;SDS011;68533;51.090;17.216;2023-09-19T07:00:54;3.10;;;0.80;;
79135;SDS011;68533;51.090;17.216;2023-09-19T07:03:21;1.05;;;0.70;;
79135;SDS011;68533;51.090;17.216;2023-09-19T07:05:51;5.10;;;0.77;;
79135;SDS011;68533;51.090;17.216;2023-09-19T07:08:18;9.65;;;1.23;;
79135;SDS011;68533;51.090;17.216;2023-09-19T07:10:45;0.90;;;0.77;;
79135;SDS011;68533;51.090;17.216;2023-09-19T07:13:14;2.13;;;0.70;;
79135;SDS011;68533;51.090;17.216;2023-09-19T07:15:42;1.33;;;0.40;;
79135;SDS011;68533;51.090;17.216;2023-09-19T07:18:14;1.00;;;0.55;;
79135;SDS011;68533;51.090;17.216;2023-09-19T07:20:43;1.00;;;0.50;;
79135;SDS011;68533;51.090;17.216;2023-09-19T07:23:16;1.88;;;1.13;;
79135;SDS011;68533;51.090;17.216;2023-09-19T07:28:16;1.40;;;0.77;;
79135;SDS011;68533;51.090;17.216;2023-09-19T07:30:42;0.65;;;0.47;;
79135;SDS011;68533;51.090;17.216;2023-09-19T07:33:08;0.40;;;0.40;;
79135;SDS011;68533;51.090;17.216;2023-09-19T07:35:37;0.50;;;0.50;;
79135;SDS011;68533;51.090;17.216;2023-09-19T07:38:07;0.82;;;0.35;;
79135;SDS011;68533;51.090;17.216;2023-09-19T07:40:34;0.50;;;0.40;;
79135;SDS011;68533;51.090;17.216;2023-09-19T07:43:00;1.33;;;0.50;;
79135;SDS011;68533;51.090;17.216;2023-09-19T07:45:30;2.03;;;0.80;;
79135;SDS011;68533;51.090;17.216;2023-09-19T07:47:57;1.40;;;0.63;;
79135;SDS011;68533;51.090;17.216;2023-09-19T07:50:26;1.77;;;0.82;;
79135;SDS011;68533;51.090;17.216;2023-09-19T07:52:52;6.18;;;0.70;;
79135;SDS011;68533;51.090;17.216;2023-09-19T07:55:22;0.45;;;0.35;;
79135;SDS011;68533;51.090;17.216;2023-09-19T07:57:51;1.63;;;0.52;;
79135;SDS011;68533;51.090;17.216;2023-09-19T08:00:19;1.05;;;0.70;;
79135;SDS011;68533;51.090;17.216;2023-09-19T08:02:45;4.28;;;0.63;;
79135;SDS011;68533;51.090;17.216;2023-09-19T08:05:12;1.25;;;0.57;;
79135;SDS011;68533;51.090;17.216;2023-09-19T08:07:42;2.65;;;0.57;;
79135;SDS011;68533;51.090;17.216;2023-09-19T08:10:11;0.73;;;0.73;;
79135;SDS011;68533;51.090;17.216;2023-09-19T08:12:42;0.57;;;0.35;;
79135;SDS011;68533;51.090;17.216;2023-09-19T08:15:13;1.30;;;0.75;;
79135;SDS011;68533;51.090;17.216;2023-09-19T08:17:39;1.50;;;0.52;;
79135;SDS011;68533;51.090;17.216;2023-09-19T08:20:12;0.60;;;0.60;;
79135;SDS011;68533;51.090;17.216;2023-09-19T08:22:43;1.92;;;0.93;;
79135;SDS011;68533;51.090;17.216;2023-09-19T08:25:15;3.35;;;0.90;;
79135;SDS011;68533;51.090;17.216;2023-09-19T08:27:48;1.92;;;0.52;;
79135;SDS011;68533;51.090;17.216;2023-09-19T08:30:16;0.63;;;0.50;;
79135;SDS011;68533;51.090;17.216;2023-09-19T08:32:43;1.77;;;0.75;;
79135;SDS011;68533;51.090;17.216;2023-09-19T08:35:10;0.70;;;0.50;;
79135;SDS011;68533;51.090;17.216;2023-09-19T08:37:36;2.05;;;0.73;;
79135;SDS011;68533;51.090;17.216;2023-09-19T08:40:05;9.00;;;1.42;;
79135;SDS011;68533;51.090;17.216;2023-09-19T08:42:54;1.45;;;0.70;;
79135;SDS011;68533;51.090;17.216;2023-09-19T08:45:22;0.75;;;0.57;;
79135;SDS011;68533;51.090;17.216;2023-09-19T08:48:10;0.93;;;0.82;;
79135;SDS011;68533;51.090;17.216;2023-09-19T08:51:03;0.55;;;0.32;;
79135;SDS011;68533;51.090;17.216;2023-09-19T08:53:36;0.38;;;0.25;;
79135;SDS011;68533;51.090;17.216;2023-09-19T08:56:09;0.85;;;0.50;;
79135;SDS011;68533;51.090;17.216;2023-09-19T08:58:47;0.77;;;0.77;;
79135;SDS011;68533;51.090;17.216;2023-09-19T09:01:20;1.55;;;0.65;;
79135;SDS011;68533;51.090;17.216;2023-09-19T09:03:54;2.10;;;0.65;;
79135;SDS011;68533;51.090;17.216;2023-09-19T09:06:21;2.08;;;0.80;;
79135;SDS011;68533;51.090;17.216;2023-09-19T09:08:49;1.73;;;1.10;;
79135;SDS011;68533;51.090;17.216;2023-09-19T09:11:17;0.80;;;0.70;;
79135;SDS011;68533;51.090;17.216;2023-09-19T09:13:44;1.27;;;0.63;;
79135;SDS011;68533;51.090;17.216;2023-09-19T09:16:12;1.23;;;0.70;;
79135;SDS011;68533;51.090;17.216;2023-09-19T09:18:39;0.90;;;0.68;;
79135;SDS011;68533;51.090;17.216;2023-09-19T09:21:10;0.50;;;0.40;;
79135;SDS011;68533;51.090;17.216;2023-09-19T09:23:39;1.13;;;0.70;;
79135;SDS011;68533;51.090;17.216;2023-09-19T09:26:06;2.35;;;0.43;;
79135;SDS011;68533;51.090;17.216;2023-09-19T09:28:33;0.88;;;0.43;;
79135;SDS011;68533;51.090;17.216;2023-09-19T09:31:04;1.45;;;0.60;;
79135;SDS011;68533;51.090;17.216;2023-09-19T09:33:37;0.63;;;0.40;;
79135;SDS011;68533;51.090;17.216;2023-09-19T09:36:05;0.85;;;0.40;;
79135;SDS011;68533;51.090;17.216;2023-09-19T09:38:45;1.95;;;0.70;;
79135;SDS011;68533;51.090;17.216;2023-09-19T09:41:15;0.65;;;0.50;;
79135;SDS011;68533;51.090;17.216;2023-09-19T09:43:52;0.60;;;0.43;;
79135;SDS011;68533;51.090;17.216;2023-09-19T09:46:20;1.02;;;0.65;;
79135;SDS011;68533;51.090;17.216;2023-09-19T09:48:47;0.85;;;0.38;;
79135;SDS011;68533;51.090;17.216;2023-09-19T09:51:45;2.60;;;0.50;;
79135;SDS011;68533;51.090;17.216;2023-09-19T09:57:07;0.52;;;0.52;;
79135;SDS011;68533;51.090;17.216;2023-09-19T09:59:49;2.83;;;0.68;;
79135;SDS011;68533;51.090;17.216;2023-09-19T10:02:17;1.00;;;0.60;;
79135;SDS011;68533;51.090;17.216;2023-09-19T10:04:54;2.10;;;0.60;;
79135;SDS011;68533;51.090;17.216;2023-09-19T10:07:31;1.05;;;0.70;;
79135;SDS011;68533;51.090;17.216;2023-09-19T10:09:58;1.23;;;0.75;;
79135;SDS011;68533;51.090;17.216;2023-09-19T10:12:37;0.65;;;0.50;;
79135;SDS011;68533;51.090;17.216;2023-09-19T10:15:07;0.85;;;0.43;;
79135;SDS011;68533;51.090;17.216;2023-09-19T10:17:39;1.02;;;0.68;;
79135;SDS011;68533;51.090;17.216;2023-09-19T10:20:09;1.63;;;0.30;;
79135;SDS011;68533;51.090;17.216;2023-09-19T10:22:48;0.68;;;0.40;;
79135;SDS011;68533;51.090;17.216;2023-09-19T10:25:24;1.35;;;0.70;;
79135;SDS011;68533;51.090;17.216;2023-09-19T10:28:02;0.82;;;0.50;;
79135;SDS011;68533;51.090;17.216;2023-09-19T10:30:42;0.77;;;0.60;;
79135;SDS011;68533;51.090;17.216;2023-09-19T10:33:11;0.45;;;0.38;;
79135;SDS011;68533;51.090;17.216;2023-09-19T10:35:40;3.05;;;0.60;;
79135;SDS011;68533;51.090;17.216;2023-09-19T10:38:09;1.13;;;0.30;;
79135;SDS011;68533;51.090;17.216;2023-09-19T10:40:39;1.08;;;0.50;;
79135;SDS011;68533;51.090;17.216;2023-09-19T10:43:13;1.35;;;0.65;;
79135;SDS011;68533;51.090;17.216;2023-09-19T10:45:47;3.17;;;0.90;;
79135;SDS011;68533;51.090;17.216;2023-09-19T10:48:17;0.82;;;0.82;;
79135;SDS011;68533;51.090;17.216;2023-09-19T10:53:45;3.70;;;0.52;;
79135;SDS011;68533;51.090;17.216;2023-09-19T10:56:18;0.93;;;0.38;;
79135;SDS011;68533;51.090;17.216;2023-09-19T10:58:49;0.63;;;0.47;;
79135;SDS011;68533;51.090;17.216;2023-09-19T11:01:15;1.75;;;0.50;;
79135;SDS011;68533;51.090;17.216;2023-09-19T11:03:43;1.25;;;0.70;;
79135;SDS011;68533;51.090;17.216;2023-09-19T11:06:16;1.77;;;0.98;;
79135;SDS011;68533;51.090;17.216;2023-09-19T11:08:53;0.50;;;0.40;;
79135;SDS011;68533;51.090;17.216;2023-09-19T11:30:44;0.47;;;0.43;;
79135;SDS011;68533;51.090;17.216;2023-09-19T11:33:21;2.03;;;0.45;;
79135;SDS011;68533;51.090;17.216;2023-09-19T11:36:01;1.13;;;0.30;;
79135;SDS011;68533;51.090;17.216;2023-09-19T11:41:37;0.40;;;0.30;;
79135;SDS011;68533;51.090;17.216;2023-09-19T11:49:16;0.52;;;0.52;;
79135;SDS011;68533;51.090;17.216;2023-09-19T11:51:53;0.55;;;0.40;;
79135;SDS011;68533;51.090;17.216;2023-09-19T11:54:21;0.55;;;0.45;;
79135;SDS011;68533;51.090;17.216;2023-09-19T11:56:51;1.88;;;0.47;;
79135;SDS011;68533;51.090;17.216;2023-09-19T11:59:21;1.45;;;0.45;;
79135;SDS011;68533;51.090;17.216;2023-09-19T12:02:09;0.90;;;0.80;;
79135;SDS011;68533;51.090;17.216;2023-09-19T12:04:44;0.82;;;0.43;;
79135;SDS011;68533;51.090;17.216;2023-09-19T12:07:15;0.68;;;0.32;;
79135;SDS011;68533;51.090;17.216;2023-09-19T12:09:48;0.90;;;0.70;;
79135;SDS011;68533;51.090;17.216;2023-09-19T12:12:23;1.85;;;0.20;;
79135;SDS011;68533;51.090;17.216;2023-09-19T12:14:56;0.80;;;0.70;;
79135;SDS011;68533;51.090;17.216;2023-09-19T12:17:47;0.80;;;0.35;;
79135;SDS011;68533;51.090;17.216;2023-09-19T12:20:14;1.50;;;0.40;;
79135;SDS011;68533;51.090;17.216;2023-09-19T12:22:41;1.05;;;0.57;;
79135;SDS011;68533;51.090;17.216;2023-09-19T12:25:09;0.70;;;0.52;;
79135;SDS011;68533;51.090;17.216;2023-09-19T12:27:49;0.20;;;0.20;;
79135;SDS011;68533;51.090;17.216;2023-09-19T12:30:19;1.63;;;0.40;;
79135;SDS011;68533;51.090;17.216;2023-09-19T12:32:55;0.10;;;0.10;;
79135;SDS011;68533;51.090;17.216;2023-09-19T12:35:29;1.25;;;0.25;;
79135;SDS011;68533;51.090;17.216;2023-09-19T12:37:56;0.35;;;0.20;;
79135;SDS011;68533;51.090;17.216;2023-09-19T12:40:26;0.75;;;0.43;;
79135;SDS011;68533;51.090;17.216;2023-09-19T12:42:59;0.60;;;0.60;;
79135;SDS011;68533;51.090;17.216;2023-09-19T12:45:30;1.55;;;0.40;;
79135;SDS011;68533;51.090;17.216;2023-09-19T12:51:00;2.17;;;0.60;;
79135;SDS011;68533;51.090;17.216;2023-09-19T12:56:12;1.60;;;0.57;;
79135;SDS011;68533;51.090;17.216;2023-09-19T13:01:20;0.55;;;0.32;;
79135;SDS011;68533;51.090;17.216;2023-09-19T13:06:53;0.63;;;0.50;;
79135;SDS011;68533;51.090;17.216;2023-09-19T13:09:21;0.65;;;0.25;;
79135;SDS011;68533;51.090;17.216;2023-09-19T13:11:54;0.47;;;0.40;;
79135;SDS011;68533;51.090;17.216;2023-09-19T13:19:35;0.50;;;0.50;;
79135;SDS011;68533;51.090;17.216;2023-09-19T13:25:02;0.73;;;0.30;;
79135;SDS011;68533;51.090;17.216;2023-09-19T13:27:30;1.88;;;0.75;;
79135;SDS011;68533;51.090;17.216;2023-09-19T13:29:59;0.70;;;0.40;;
79135;SDS011;68533;51.090;17.216;2023-09-19T13:32:31;0.60;;;0.38;;
79135;SDS011;68533;51.090;17.216;2023-09-19T13:34:58;0.85;;;0.50;;
79135;SDS011;68533;51.090;17.216;2023-09-19T13:37:25;0.70;;;0.50;;
79135;SDS011;68533;51.090;17.216;2023-09-19T13:39:52;2.28;;;0.50;;
79135;SDS011;68533;51.090;17.216;2023-09-19T13:42:20;1.08;;;0.50;;
79135;SDS011;68533;51.090;17.216;2023-09-19T13:44:47;0.43;;;0.30;;
79135;SDS011;68533;51.090;17.216;2023-09-19T13:47:16;0.30;;;0.30;;
79135;SDS011;68533;51.090;17.216;2023-09-19T13:49:42;0.30;;;0.28;;
79135;SDS011;68533;51.090;17.216;2023-09-19T13:52:08;1.17;;;0.28;;
79135;SDS011;68533;51.090;17.216;2023-09-19T13:54:35;0.70;;;0.50;;
79135;SDS011;68533;51.090;17.216;2023-09-19T13:57:05;0.65;;;0.50;;
79135;SDS011;68533;51.090;17.216;2023-09-19T13:59:31;0.52;;;0.35;;
79135;SDS011;68533;51.090;17.216;2023-09-19T14:01:57;0.22;;;0.22;;
79135;SDS011;68533;51.090;17.216;2023-09-19T14:04:26;0.47;;;0.47;;
79135;SDS011;68533;51.090;17.216;2023-09-19T14:06:56;1.05;;;0.30;;
79135;SDS011;68533;51.090;17.216;2023-09-19T14:09:28;1.65;;;0.43;;
79135;SDS011;68533;51.090;17.216;2023-09-19T14:11:59;0.82;;;0.45;;
79135;SDS011;68533;51.090;17.216;2023-09-19T14:14:31;1.42;;;0.55;;
79135;SDS011;68533;51.090;17.216;2023-09-19T14:17:03;0.40;;;0.30;;
79135;SDS011;68533;51.090;17.216;2023-09-19T14:19:30;7.72;;;0.55;;
79135;SDS011;68533;51.090;17.216;2023-09-19T14:21:57;1.08;;;0.70;;
79135;SDS011;68533;51.090;17.216;2023-09-19T14:24:23;0.70;;;0.52;;
79135;SDS011;68533;51.090;17.216;2023-09-19T14:26:49;0.35;;;0.20;;
79135;SDS011;68533;51.090;17.216;2023-09-19T14:29:17;0.55;;;0.30;;
79135;SDS011;68533;51.090;17.216;2023-09-19T14:31:44;0.38;;;0.25;;
79135;SDS011;68533;51.090;17.216;2023-09-19T14:34:10;0.35;;;0.32;;
79135;SDS011;68533;51.090;17.216;2023-09-19T14:36:40;1.13;;;0.45;;
79135;SDS011;68533;51.090;17.216;2023-09-19T14:39:09;0.70;;;0.35;;
79135;SDS011;68533;51.090;17.216;2023-09-19T14:41:41;2.17;;;0.40;;
79135;SDS011;68533;51.090;17.216;2023-09-19T14:44:08;1.55;;;0.52;;
79135;SDS011;68533;51.090;17.216;2023-09-19T14:46:38;0.57;;;0.57;;
79135;SDS011;68533;51.090;17.216;2023-09-19T14:49:04;7.22;;;0.68;;
79135;SDS011;68533;51.090;17.216;2023-09-19T14:51:34;0.93;;;0.40;;
79135;SDS011;68533;51.090;17.216;2023-09-19T14:54:01;0.50;;;0.25;;
79135;SDS011;68533;51.090;17.216;2023-09-19T14:56:29;0.82;;;0.40;;
79135;SDS011;68533;51.090;17.216;2023-09-19T14:58:58;0.68;;;0.35;;
79135;SDS011;68533;51.090;17.216;2023-09-19T15:01:24;0.45;;;0.20;;
79135;SDS011;68533;51.090;17.216;2023-09-19T15:03:53;1.23;;;0.55;;
79135;SDS011;68533;51.090;17.216;2023-09-19T15:06:21;0.57;;;0.32;;
79135;SDS011;68533;51.090;17.216;2023-09-19T15:08:47;0.40;;;0.28;;
79135;SDS011;68533;51.090;17.216;2023-09-19T15:11:14;0.40;;;0.40;;
79135;SDS011;68533;51.090;17.216;2023-09-19T15:13:43;1.98;;;0.40;;
79135;SDS011;68533;51.090;17.216;2023-09-19T15:16:10;0.80;;;0.52;;
79135;SDS011;68533;51.090;17.216;2023-09-19T15:18:38;0.20;;;0.20;;
79135;SDS011;68533;51.090;17.216;2023-09-19T15:21:10;0.60;;;0.52;;
79135;SDS011;68533;51.090;17.216;2023-09-19T15:23:41;1.30;;;1.20;;
79135;SDS011;68533;51.090;17.216;2023-09-19T15:28:45;0.40;;;0.40;;
79135;SDS011;68533;51.090;17.216;2023-09-19T15:31:13;0.45;;;0.40;;
79135;SDS011;68533;51.090;17.216;2023-09-19T15:33:39;0.95;;;0.40;;
79135;SDS011;68533;51.090;17.216;2023-09-19T15:36:07;0.80;;;0.38;;
79135;SDS011;68533;51.090;17.216;2023-09-19T15:41:34;0.20;;;0.20;;
79135;SDS011;68533;51.090;17.216;2023-09-19T15:44:07;0.95;;;0.35;;
79135;SDS011;68533;51.090;17.216;2023-09-19T15:46:38;2.28;;;0.40;;
79135;SDS011;68533;51.090;17.216;2023-09-19T15:49:06;0.68;;;0.30;;
79135;SDS011;68533;51.090;17.216;2023-09-19T15:51:36;0.47;;;0.40;;
79135;SDS011;68533;51.090;17.216;2023-09-19T15:54:07;0.45;;;0.22;;
79135;SDS011;68533;51.090;17.216;2023-09-19T15:56:35;1.60;;;0.40;;
79135;SDS011;68533;51.090;17.216;2023-09-19T15:59:02;0.43;;;0.17;;
79135;SDS011;68533;51.090;17.216;2023-09-19T16:01:28;0.90;;;0.47;;
79135;SDS011;68533;51.090;17.216;2023-09-19T16:03:54;0.88;;;0.43;;
79135;SDS011;68533;51.090;17.216;2023-09-19T16:06:25;1.00;;;0.60;;
79135;SDS011;68533;51.090;17.216;2023-09-19T16:08:57;3.05;;;0.57;;